This is the latest recevied weather packets stored in our database for station/object EA8DNP-14. If no packets are shown the sender has not sent any weather packets the latest 10 day(s).
| Time | Temp. | Humidity | Pressure | Rain* | Wind** | Luminosity | Snow |
|---|---|---|---|---|---|---|---|
| 1787604438 | 13.33° C | 69% | 904.7 hPa | - | - | - | - |
| 1787603538 | 13.33° C | 68% | 904.6 hPa | - | - | - | - |
| 1787602638 | 13.89° C | 68% | 904.4 hPa | - | - | - | - |
| 1787601738 | 13.33° C | 68% | 904.3 hPa | - | - | - | - |
| 1787600838 | 13.33° C | 68% | 904 hPa | - | - | - | - |
| 1787599938 | 13.89° C | 67% | 904 hPa | - | - | - | - |
| 1787599037 | 14.44° C | 65% | 903.8 hPa | - | - | - | - |
| 1787598137 | 15° C | 64% | 903.6 hPa | - | - | - | - |
| 1787597237 | 15.56° C | 63% | 903.7 hPa | - | - | - | - |
| 1787596337 | 16.11° C | 62% | 903.7 hPa | - | - | - | - |
| 1787595437 | 17.22° C | 60% | 903.7 hPa | - | - | - | - |
| 1787593636 | 18.33° C | 56% | 903.6 hPa | - | - | - | - |
| 1787592736 | 20° C | 54% | 903.7 hPa | - | - | - | - |
| 1787591836 | 21.67° C | 50% | 903.6 hPa | - | - | - | - |
| 1787590936 | 25° C | 46% | 903.6 hPa | - | - | - | - |
| 1787590036 | 25° C | 48% | 903.6 hPa | - | - | - | - |
| 1787589136 | 25.56° C | 48% | 903.8 hPa | - | - | - | - |
| 1787588236 | 23.89° C | 51% | 903.7 hPa | - | - | - | - |
| 1787587336 | 21.67° C | 55% | 903.9 hPa | - | - | - | - |
| 1787586436 | 21.11° C | 55% | 904 hPa | - | - | - | - |
| 1787585535 | 21.67° C | 54% | 904 hPa | - | - | - | - |
| 1787584635 | 22.22° C | 53% | 904.1 hPa | - | - | - | - |
| 1787583735 | 22.78° C | 52% | 904.1 hPa | - | - | - | - |
| 1787582835 | 23.33° C | 51% | 904.1 hPa | - | - | - | - |
| 1787581935 | 23.33° C | 52% | 904.3 hPa | - | - | - | - |
* Rain since midnight (hover to see other rain measurements)
** Current wind speed in m/s (hover to see current wind gust speed)